Skip to content

GuitarMania

2007.07.08 20:45

소르의 마적입니다...

(*.8.249.202) 조회 수 27635 댓글 19
역시 독학은 한계를 많이 느낍니다...

예전에 녹음했던 곡인데... 고마우신 동호인 분께서 ... 노이즈를 확 줄여서 보내주셨네요...

노이즈가 심했던 예전 녹음곡보다는 들어줄만 한듯하여... ^^

모임에도 못가고... ...   오늘 하루종일 기타잡고 한을 풀었으나... 건진곡이 하나도 없습니당... 흐흐

멋지게 한곡 녹음하고 싶은 날이었으나... 아쉬움을 뒤로하고...


Comment '19'
  • 아이모레스 2007.07.08 21:14 (*.158.96.220)
    와~~아 연주 엄청 좋네요!!! 새로운 강자의 출현이 매우 기쁜 일이네요!!!!!!
    본업이 화가이신 모양이네요?? 여기 그림 그리시는 분들 많으니 자주 놀러 오세요!!!!!
  • 땡땡이 2007.07.08 21:50 (*.105.43.23)
    정말 대단하십니다. 너무 부럽고요.저는 언제나 이렇게 연주할 수 있을지 막연합니다.즐감하고 갑니다... 꾸벅
  • Jason 2007.07.08 22:12 (*.29.94.88)
    소리가 깨끗하십니다.
    좋아하는 소리입니다.
    연주실력으로 봐서는...좀더 여유를 보이셔도 될것 같은데
    겸손하게 연주하신것 같습니다. ^^
    무엇보다두 반갑네요. ^^
  • ldh2187 2007.07.08 22:38 (*.39.133.21)
    도대체 이사이트엔 웬 고수분이 이리 많은지....

    녹음장비는 구입했는데 화가님때문에 포기해야겠슴다.
  • ldh2187 2007.07.08 22:45 (*.39.133.21)
    마적은 정말 연습과 연주로써 귀감이 되는 소르의 좋은곡입니다.

    저는 이곡칠때 모데라토로 시작하다가 항상 비바체로 결론을 맺습니다.

    스피드 조절이 유연하신걸로 보아 ipaco님과 내공이 비슷한 10갑자이상의 고수님....

    즐감했슴다.
  • fernando 2007.07.08 23:08 (*.140.49.235)
    아마추어(?)의 연주로서는 최정상급의 마적연주라고 감히 말씀드립니다. 짝! 짝! 짝!
    저는 아이디 부터 바꿔야 될 것같아요. 한 30년을 주물러도 마적을 제대로 못치니...
  • G-Love 2007.07.09 01:00 (*.52.171.89)
    와~~~~ 훌륭한 연주 잘들었습니다. 더이상 할 말을 없군요.
  • 흰구름 2007.07.09 09:48 (*.8.246.23)
    처음 페이스를 끝까지 잘 유지하여 연주하시는군요.
    대단한 실력이십니다.
    오랜 연륜이 느껴집니다.
  • 리나 2007.07.09 10:19 (*.110.172.248)
    월요일 아침부터 참 좋은 연주 반갑네요... 조금만 더 다듬으면 음반내셔도 되겠습니다 부럽습니다~
  • 샤콘느1004 2007.07.09 11:39 (*.216.48.105)
    더이상 바랄게 없는연주네요 최곱니다.
  • 2007.07.09 11:39 (*.239.64.24)
    정말 훌륭한 훌륭한 연주입니다. 흠잡을것도 없는 ...

    다만.... 다만... 누가 들어도 화가님 연주라고 느껴지는 개성이 있었어면 좋겠습니다.
    너무 무리한 요구인가요? 하하 ^^ (이런 유명한 곡은 잘치는분들은 누구나 비슷하게 들려서요 .)
  • 2007.07.09 11:47 (*.205.170.18)
    화가님 반가와요~ ^^/
    역시 화가님 마적은 들을때마다 너무 좋아요.
    기분 좋은 월요일~~~~
  • April 2007.07.09 12:22 (*.253.60.49)
    히야... 대박이군요...

    정말 아마츄어 연주중에 최고라 할 수 있겠습니다. 최고 부럽다.... ㅠㅠ
  • 허허 2007.07.09 19:35 (*.184.254.4)
    와 내공이 진짜 10갑자 시네요
  • 화가 2007.07.10 00:20 (*.8.240.128)
    아... 제 닉이 오해를... ^^ 죄송합니다... (_ _) 그냥 노래제목 입니다...
    들어주시고 덧글까지 남겨주시니 너무 감사드립니다
    그런데.... 과찬들이 많으셔서.... ... 너무 부끄럽습니다...
    제가 이곳에서 감탄을 하며 즐겨듣던 ... 그런 연주를 하신 분들인데...

    훈님 덧글을 보니 뜨끔 하네요... 그저 흉내내는 수준이 들통나 버린... 흐흐... 물론 무리한 요구십니다...
    언젠가는 그런... 저만의 개성이 드러나는 연주를 할 날이 오겠지요... ^^
  • 화가 2007.07.10 01:23 (*.8.240.128)
    꼬님 여서 뵈니 더 반갑네요 ^^
  • 콩쥐 2007.07.29 20:07 (*.84.126.247)
    독학으로 거의 경지까지 가셧네요...
    .............이젠 새로운시기 ?
  • 기타소년 2007.07.30 10:29 (*.140.153.95)
    하핫! 화가님이시군요 ^^

    이거 카페에 올리셨을때 엄청난 충격에 휩싸였었는데... 여전히~~

    못따라가겠어요 ㅋㅋ
  • 기린 2007.09.18 15:59 (*.16.82.71)
    튜닝을 더 정확하게 하셔야 겠어요.. 한현이 소리가 다르네요..
?

List of Articles
번호 제목 글쓴이 날짜 조회 수
1836 Love Affair 6 2007.06.02 19044
1835 zapateado///rodrigo 13 김은미 2007.06.03 23971
1834 최후의 트레몰로 (리버브효과없는겁니다..;;) 4 file JoDaC 2007.06.09 19144
1833 최후의 트레몰로 입니다 ^^ 32 file JoDaC 2007.06.06 23341
1832 전설 11 file 최병욱 2007.06.06 23254
1831 I believe 13 file orpheus15 2007.06.08 19182
1830 Romance.3번. 10 file 우체국가는길 2007.06.08 23809
1829 Kiss the Rain 이루마 곡 (기타 연주) 44 file 아이모레스 2007.06.12 26620
1828 오 솔레미오 4 file 밀롱가. 2007.06.14 21101
1827 Recuerdos de la Alhambra -F. Tarrega 12 file Jason 2007.06.15 23504
1826 알함브라 다시녹음했습니다~ 14 file 최병욱 2007.06.16 21583
1825 [re] 소르 연습곡 6번-리버브를 넣어보았습니다. 1 file niceplace 2007.06.20 21662
1824 소르 연습곡 6번 8 file niceplace 2007.06.17 21724
1823 Romance.3번. 다시 올려요 6 file 우체국가는길 2007.06.17 25639
1822 뱃노래 - 코스트 12 file fernando 2007.06.19 22306
1821 유키구라모토의 Meditation 18 file 최병욱 2007.06.19 23597
1820 fredric hand의 연습곡 1번 4 file 루하기 2007.06.21 15662
1819 리브라소나티네 3.Fuoco-롤랑디용 27 file MSGr 2007.06.21 28252
1818 바흐 샤콘느 10 file 좁은길로 2007.06.26 23051
1817 쉘부르의 우산 3 file nice guy 2007.06.27 22413
1816 Koyunbaba - C. Domeniconi 25 file 진느 2007.06.27 19721
1815 F. Tarrega,Capricho Arabe 33 file Jason 2007.06.28 22575
1814 Agua e Vinho - Egberto Gismonti 18 file limnz 2007.06.29 21896
1813 BWV1006a 프렐류드 3 file 좁은길로 2007.06.29 21636
1812 이노래어떤가요? Pulo do Gato(P.Bellinati) 15 file MSGr 2007.07.01 26348
1811 L'HYMNE A L'AMOUR / E.PIAF 24 file April 2007.07.04 20779
1810 Kleine Romanze- L. Walker 10 file Jason 2007.07.05 20441
1809 Triste Santuario by Vincent Gomez-슬픈 예배당 17 file Jason 2007.07.05 24303
1808 대성당1악장 8 file 좁은길로 2007.07.05 19983
1807 이루마의 When the love falls 7 file 최병욱 2007.07.07 43344
1806 종소리 12 file 좁은길로 2007.07.07 23297
» 소르의 마적입니다... 19 file 화가 2007.07.08 27635
1804 brahms-theme and variations 20 file 기타레타 2007.07.09 29574
1803 [영상] 엘레지 Elegie (메르츠 Mertz) 3 2007.07.09 22504
1802 이병우 - 달려 18 file 김상욱 2007.07.09 21856
1801 대성당2악장 4 file 좁은길로 2007.07.09 31231
1800 도적의 노래-ibach 연주 16 file 바하의꿈 2007.07.10 22772
1799 하프시 팟사 완주--! 4 file 좁은길로 2007.07.10 21060
1798 핑거스타일- Sun dance (Kotaro Oshio) 7 file 최병욱 2007.07.11 24933
1797 Giuliani-- Rossiniana No.1 (글로빌 아트홀 실황연주) 15 file LDH 2007.07.11 18525
1796 엔커리지먼트-소르 39 file 기타레타 2007.07.11 22659
1795 이 곡 제목이 뭔가요? 3 file -_ - 2007.07.12 18932
1794 헨델의 아리아 23 file 아이모레스 2007.07.12 22558
1793 G선상의 아리아 - J.S.BACH 43 file 기타레타 2007.07.13 23245
1792 이루마의 Kiss the Rain 6 file 최병욱 2007.07.13 22957
1791 Pierre Bensusan - 아도니스의 정원 12 file 찬찬 2007.07.14 24135
1790 Bach - BWV1007 Prelude & Allemande 16 file 김상욱 2007.07.14 21980
1789 Wonderful tonight 43 file - 情 - 2007.07.14 25062
1788 Variation on Theme of Mozart - F.Sor 32 file Jason 2007.07.15 22988
1787 월량대표아적심(月亮代表我的心) 29 이진성 2007.07.19 25206
1786 Fantasia Arabe by Sabicas 22 file Jason 2007.07.22 18857
1785 샤콘느 뒤에뒤부분 7 file 좁은길로 2007.07.23 19581
1784 유키 구라모토의 Lake Louise(새로운 편곡) 17 file 최병욱 2007.07.23 22780
1783 Aria no.1 - F. Kleynjans 11 file bradpitt 2007.07.24 22683
1782 Septiembre (Maximo Diego Pujol) 21 file 라일 2007.07.26 21377
1781 (이중주) Green Sleeves 20 file niceplace 2007.07.27 24175
1780 BWV1006a Prelude 7 file 좁은길로 2007.07.27 25031
1779 A. Piazzolla Quattro Stagioni (부에노스아이레스의 사계) 1. Primavera portend (봄) 8 file sgq 2007.07.27 22592
1778 A. Piazzolla Oblivion(망각) 3 file sgq 2007.07.27 22389
1777 A. Piazzolla Liebertango 1 file sgq 2007.07.27 23312
1776 P. Bellinati Baiao de Gude 서울기타콰르텟 4 file sgq 2007.07.27 23218
1775 사람이 꽃보다 아름다워~~~ 4 야매 2007.07.28 23289
1774 Fur Elise by L. Van Beethoven 62 file Jason 2007.07.28 26643
1773 부탁 김효석 2007.07.29 18599
1772 클레이앙스-로망스1번(이중주) 6 file 기타레타 2007.07.30 19121
1771 Lamento No.2 / F. Kleynjans 12 file 이진성 2007.08.01 20526
1770 The old rugged cross by G. Bennard 10 file Jason 2007.08.02 21961
1769 로망스 no.1(이중주)-끌레앙 16 file 체르니 2007.08.04 31746
1768 Sleeprs, Awake! 눈뜨라부르는소리있어 7 file 좁은길로 2007.08.05 19999
1767 Estudio No.12 / F. Sor 13 file 이진성 2007.08.06 22463
1766 Partners in Praise / 안신영님 편곡 10 file orpheus15 2007.08.07 19515
1765 알베니즈-야자나무 아래에서 13 file 기타레타 2007.08.08 28562
1764 로드리고 // 고풍스런 티엔토 30 file 진느 2007.08.08 25150
1763 Sor Etude#6 10 file 밀롱가. 2007.08.10 20328
1762 Classical Gas/Mason Williams -클래식컬 개스 23 file Jason 2007.08.10 22679
1761 Adelita 2 file sky600 2007.08.12 14790
1760 maria luisa 6 file sky600 2007.08.12 23580
1759 sunflower 14 file 한사랑 2007.08.13 21054
1758 Tango En Skai 11 file 좁은길로 2007.08.13 23908
1757 바흐 // Choral from cantata147 arr.David Russell 31 file 진느 2007.08.14 20419
1756 milonga 6 file 2007.08.15 21602
1755 [동영상] Barrios - Una Limosna por el amor de Dios (최후의 트레몰로) 39 file 김상욱 2007.08.17 27497
1754 텅 빈 놀이터 II by devilous 9 file devilous 2007.08.20 20199
1753 Sleepers, Awake! from Cantata BWV140 9 file April 2007.08.20 20084
1752 Yuichi Watanabe - Morning Dew 5 file 2007.08.21 23196
1751 Falla--ThreeCorneredHat(KimMoonHyung & Chung Sehee) 7 file 바하의꿈 2007.08.21 24678
1750 망고레의 Contemplacion (깊은 그리움) 24 file 아이모레스 2007.08.22 21975
1749 헨델의 대장간변주?^^ Handel--Blacksmith Variations 19 file 바하의꿈 2007.08.23 23613
1748 F. Sor의 인커리지먼트 18 file 바하의꿈 2007.08.24 24691
1747 알함브라궁전의 추억 12 file 정면 2007.08.24 21402
1746 죄송한! 탕고 안 스까이 바이 로랑디앙 (조율 맞춰 재업)ㅠ 8 file buyho 2007.08.26 16682
1745 Stairway to Heaven, Classical/Unplugged version 기악 독주 7 file 2007.08.28 25161
1744 Les Feuilles Mortes (고엽) - Joseph Kosma 20 file 고정석 2007.08.29 21382
1743 Beautiful Dreamer(토스토) 7 file 까치 2007.08.30 23066
1742 줄리아니 기타협주곡 5 file buyho 2007.09.04 20463
1741 가을편지 / 안형수 편곡 15 file orpheus15 2007.09.04 22611
1740 녹음은 어떻게 하나요? 2 소르초이 2007.09.05 19615
1739 TOmmy Emmanuel-Angelina 10 file 좁은길로 2007.09.05 19030
1738 내마음의 보석상자(동영상) 7 야매 2007.09.07 24361
1737 Venus(동영상) 4 야매 2007.09.07 27053
Board Pagination ‹ Prev 1 ... 11 12 13 14 15 16 17 18 19 20 21 22 23 24 25 26 27 28 29 30 ... 39 Next ›
/ 39

나눔글꼴 설치 안내


이 PC에는 나눔글꼴이 설치되어 있지 않습니다.

이 사이트를 나눔글꼴로 보기 위해서는
나눔글꼴을 설치해야 합니다.

설치 취소

Designed by sketchbooks.co.kr / sketchbook5 board skin

Sketchbook5, 스케치북5

Sketchbook5, 스케치북5

Sketchbook5, 스케치북5

Sketchbook5, 스케치북5

Powered by Xpress Engine / Designed by hikaru100

abcXYZ, 세종대왕,1234

abcXYZ, 세종대왕,1234